sensor_id;sensor_type;location;lat;lon;timestamp;temperature;humidity
33803;DHT22;20110;53.120;5.786;2023-09-19T00:00:58;12.60;99.90
33803;DHT22;20110;53.120;5.786;2023-09-19T00:03:24;12.60;99.90
33803;DHT22;20110;53.120;5.786;2023-09-19T00:05:51;12.60;99.90
33803;DHT22;20110;53.120;5.786;2023-09-19T00:08:18;12.70;99.90
33803;DHT22;20110;53.120;5.786;2023-09-19T00:10:48;12.80;99.90
33803;DHT22;20110;53.120;5.786;2023-09-19T00:13:14;12.80;99.90
33803;DHT22;20110;53.120;5.786;2023-09-19T00:15:42;12.80;99.90
33803;DHT22;20110;53.120;5.786;2023-09-19T00:18:14;12.80;99.90
33803;DHT22;20110;53.120;5.786;2023-09-19T00:20:41;12.80;99.90
33803;DHT22;20110;53.120;5.786;2023-09-19T00:23:07;12.70;99.90
33803;DHT22;20110;53.120;5.786;2023-09-19T00:25:34;12.60;99.90
33803;DHT22;20110;53.120;5.786;2023-09-19T00:28:01;12.50;99.90
33803;DHT22;20110;53.120;5.786;2023-09-19T00:30:27;12.50;99.90
33803;DHT22;20110;53.120;5.786;2023-09-19T00:32:53;12.40;99.90
33803;DHT22;20110;53.120;5.786;2023-09-19T00:35:23;12.30;99.90
33803;DHT22;20110;53.120;5.786;2023-09-19T00:37:50;12.20;99.90
33803;DHT22;20110;53.120;5.786;2023-09-19T00:40:16;12.10;99.90
33803;DHT22;20110;53.120;5.786;2023-09-19T00:42:43;12.10;99.90
33803;DHT22;20110;53.120;5.786;2023-09-19T00:45:11;12.10;99.90
33803;DHT22;20110;53.120;5.786;2023-09-19T00:47:49;12.10;99.90
33803;DHT22;20110;53.120;5.786;2023-09-19T00:50:18;12.00;99.90
33803;DHT22;20110;53.120;5.786;2023-09-19T00:52:49;11.90;99.90
33803;DHT22;20110;53.120;5.786;2023-09-19T00:55:18;11.90;99.90
33803;DHT22;20110;53.120;5.786;2023-09-19T00:57:45;11.90;99.90
33803;DHT22;20110;53.120;5.786;2023-09-19T01:00:13;11.80;99.90
33803;DHT22;20110;53.120;5.786;2023-09-19T01:02:45;11.80;99.90
33803;DHT22;20110;53.120;5.786;2023-09-19T01:05:13;11.80;99.90
33803;DHT22;20110;53.120;5.786;2023-09-19T01:07:39;11.90;99.90
33803;DHT22;20110;53.120;5.786;2023-09-19T01:10:12;11.90;99.90
33803;DHT22;20110;53.120;5.786;2023-09-19T01:30:57;12.40;99.90
33803;DHT22;20110;53.120;5.786;2023-09-19T01:33:25;12.40;99.90
33803;DHT22;20110;53.120;5.786;2023-09-19T01:36:01;12.50;99.90
33803;DHT22;20110;53.120;5.786;2023-09-19T01:38:27;12.50;99.90
33803;DHT22;20110;53.120;5.786;2023-09-19T01:41:06;12.50;99.90
33803;DHT22;20110;53.120;5.786;2023-09-19T01:43:42;12.50;99.90
33803;DHT22;20110;53.120;5.786;2023-09-19T01:46:35;12.50;99.90
33803;DHT22;20110;53.120;5.786;2023-09-19T01:49:11;12.50;99.90
33803;DHT22;20110;53.120;5.786;2023-09-19T01:52:16;12.50;99.90
33803;DHT22;20110;53.120;5.786;2023-09-19T01:54:50;12.50;99.90
33803;DHT22;20110;53.120;5.786;2023-09-19T01:57:35;12.40;99.90
33803;DHT22;20110;53.120;5.786;2023-09-19T02:00:10;12.40;99.90
33803;DHT22;20110;53.120;5.786;2023-09-19T02:02:40;12.40;99.90
33803;DHT22;20110;53.120;5.786;2023-09-19T02:05:10;12.40;99.90
33803;DHT22;20110;53.120;5.786;2023-09-19T02:07:38;12.40;99.90
33803;DHT22;20110;53.120;5.786;2023-09-19T02:10:06;12.40;99.90
33803;DHT22;20110;53.120;5.786;2023-09-19T02:12:33;12.40;99.90
33803;DHT22;20110;53.120;5.786;2023-09-19T02:15:01;12.40;99.90
33803;DHT22;20110;53.120;5.786;2023-09-19T02:17:27;12.50;99.90
33803;DHT22;20110;53.120;5.786;2023-09-19T02:19:55;12.50;99.90
33803;DHT22;20110;53.120;5.786;2023-09-19T02:22:22;12.50;99.90
33803;DHT22;20110;53.120;5.786;2023-09-19T02:24:48;12.60;99.90
33803;DHT22;20110;53.120;5.786;2023-09-19T02:27:14;12.60;99.90
33803;DHT22;20110;53.120;5.786;2023-09-19T02:29:42;12.60;99.90
33803;DHT22;20110;53.120;5.786;2023-09-19T02:32:09;12.50;99.90
33803;DHT22;20110;53.120;5.786;2023-09-19T02:34:36;12.50;99.90
33803;DHT22;20110;53.120;5.786;2023-09-19T02:37:08;12.40;99.90
33803;DHT22;20110;53.120;5.786;2023-09-19T02:39:38;12.40;99.90
33803;DHT22;20110;53.120;5.786;2023-09-19T02:42:04;12.40;99.90
33803;DHT22;20110;53.120;5.786;2023-09-19T02:44:30;12.50;99.90
33803;DHT22;20110;53.120;5.786;2023-09-19T02:46:56;12.50;99.90
33803;DHT22;20110;53.120;5.786;2023-09-19T02:49:25;12.50;99.90
33803;DHT22;20110;53.120;5.786;2023-09-19T02:51:51;12.40;99.90
33803;DHT22;20110;53.120;5.786;2023-09-19T02:54:17;12.40;99.90
33803;DHT22;20110;53.120;5.786;2023-09-19T02:56:43;12.30;99.90
33803;DHT22;20110;53.120;5.786;2023-09-19T02:59:09;12.30;99.90
33803;DHT22;20110;53.120;5.786;2023-09-19T03:01:36;12.30;99.90
33803;DHT22;20110;53.120;5.786;2023-09-19T03:04:04;12.30;99.90
33803;DHT22;20110;53.120;5.786;2023-09-19T03:06:31;12.20;99.90
33803;DHT22;20110;53.120;5.786;2023-09-19T03:08:58;12.20;99.90
33803;DHT22;20110;53.120;5.786;2023-09-19T03:11:25;12.10;99.90
33803;DHT22;20110;53.120;5.786;2023-09-19T03:13:54;12.10;99.90
33803;DHT22;20110;53.120;5.786;2023-09-19T03:16:21;12.00;99.90
33803;DHT22;20110;53.120;5.786;2023-09-19T03:18:50;11.90;99.90
33803;DHT22;20110;53.120;5.786;2023-09-19T03:21:17;11.90;99.90
33803;DHT22;20110;53.120;5.786;2023-09-19T03:23:44;11.90;99.90
33803;DHT22;20110;53.120;5.786;2023-09-19T03:26:14;11.90;99.90
33803;DHT22;20110;53.120;5.786;2023-09-19T03:28:42;11.90;99.90
33803;DHT22;20110;53.120;5.786;2023-09-19T03:31:09;12.00;99.90
33803;DHT22;20110;53.120;5.786;2023-09-19T03:33:37;12.00;99.90
33803;DHT22;20110;53.120;5.786;2023-09-19T03:36:04;12.20;99.90
33803;DHT22;20110;53.120;5.786;2023-09-19T03:38:31;12.30;99.90
33803;DHT22;20110;53.120;5.786;2023-09-19T03:40:58;12.30;99.90
33803;DHT22;20110;53.120;5.786;2023-09-19T03:43:24;12.40;99.90
33803;DHT22;20110;53.120;5.786;2023-09-19T03:45:50;12.50;99.90
33803;DHT22;20110;53.120;5.786;2023-09-19T03:48:16;12.50;99.90
33803;DHT22;20110;53.120;5.786;2023-09-19T03:50:42;12.50;99.90
33803;DHT22;20110;53.120;5.786;2023-09-19T03:53:12;12.50;99.90
33803;DHT22;20110;53.120;5.786;2023-09-19T03:55:39;12.40;99.90
33803;DHT22;20110;53.120;5.786;2023-09-19T03:58:05;12.40;99.90
33803;DHT22;20110;53.120;5.786;2023-09-19T04:00:31;12.40;99.90
33803;DHT22;20110;53.120;5.786;2023-09-19T04:02:57;12.30;99.90
33803;DHT22;20110;53.120;5.786;2023-09-19T04:05:23;12.40;99.90
33803;DHT22;20110;53.120;5.786;2023-09-19T04:07:50;12.50;99.90
33803;DHT22;20110;53.120;5.786;2023-09-19T04:10:16;12.50;99.90
33803;DHT22;20110;53.120;5.786;2023-09-19T04:12:53;12.50;99.90
33803;DHT22;20110;53.120;5.786;2023-09-19T04:15:20;12.50;99.90
33803;DHT22;20110;53.120;5.786;2023-09-19T04:17:50;12.40;99.90
33803;DHT22;20110;53.120;5.786;2023-09-19T04:20:18;12.50;99.90
33803;DHT22;20110;53.120;5.786;2023-09-19T04:22:50;12.50;99.90
33803;DHT22;20110;53.120;5.786;2023-09-19T04:25:17;12.60;99.90
33803;DHT22;20110;53.120;5.786;2023-09-19T04:27:44;12.70;99.90
33803;DHT22;20110;53.120;5.786;2023-09-19T04:30:10;12.70;99.90
33803;DHT22;20110;53.120;5.786;2023-09-19T04:32:41;12.60;99.90
33803;DHT22;20110;53.120;5.786;2023-09-19T04:35:08;12.70;99.90
33803;DHT22;20110;53.120;5.786;2023-09-19T04:37:39;12.70;99.90
33803;DHT22;20110;53.120;5.786;2023-09-19T04:40:08;12.70;99.90
33803;DHT22;20110;53.120;5.786;2023-09-19T04:42:39;12.70;99.90
33803;DHT22;20110;53.120;5.786;2023-09-19T04:45:06;12.70;99.90
33803;DHT22;20110;53.120;5.786;2023-09-19T04:47:32;12.70;99.90
33803;DHT22;20110;53.120;5.786;2023-09-19T04:49:58;12.70;99.90
33803;DHT22;20110;53.120;5.786;2023-09-19T04:52:24;12.80;99.90
33803;DHT22;20110;53.120;5.786;2023-09-19T04:54:50;12.80;99.90
33803;DHT22;20110;53.120;5.786;2023-09-19T04:57:16;12.80;99.90
33803;DHT22;20110;53.120;5.786;2023-09-19T04:59:42;12.70;99.90
33803;DHT22;20110;53.120;5.786;2023-09-19T05:02:07;12.70;99.90
33803;DHT22;20110;53.120;5.786;2023-09-19T05:04:34;12.70;99.90
33803;DHT22;20110;53.120;5.786;2023-09-19T05:07:00;12.70;99.90
33803;DHT22;20110;53.120;5.786;2023-09-19T05:09:29;12.80;99.90
33803;DHT22;20110;53.120;5.786;2023-09-19T05:11:55;12.80;99.90
33803;DHT22;20110;53.120;5.786;2023-09-19T05:14:22;12.80;99.90
33803;DHT22;20110;53.120;5.786;2023-09-19T05:16:48;12.90;99.90
33803;DHT22;20110;53.120;5.786;2023-09-19T05:19:14;12.90;99.90
33803;DHT22;20110;53.120;5.786;2023-09-19T05:21:40;12.90;99.90
33803;DHT22;20110;53.120;5.786;2023-09-19T05:24:06;12.90;99.90
33803;DHT22;20110;53.120;5.786;2023-09-19T05:26:33;12.90;99.90
33803;DHT22;20110;53.120;5.786;2023-09-19T05:28:59;12.90;99.90
33803;DHT22;20110;53.120;5.786;2023-09-19T05:31:27;13.00;99.90
33803;DHT22;20110;53.120;5.786;2023-09-19T05:33:53;12.90;99.90
33803;DHT22;20110;53.120;5.786;2023-09-19T05:36:20;13.00;99.90
33803;DHT22;20110;53.120;5.786;2023-09-19T05:38:46;13.00;99.90
33803;DHT22;20110;53.120;5.786;2023-09-19T05:41:15;13.00;99.90
33803;DHT22;20110;53.120;5.786;2023-09-19T05:43:43;13.00;99.90
33803;DHT22;20110;53.120;5.786;2023-09-19T05:46:15;13.00;99.90
33803;DHT22;20110;53.120;5.786;2023-09-19T05:48:42;13.00;99.90
33803;DHT22;20110;53.120;5.786;2023-09-19T05:51:09;13.00;99.90
33803;DHT22;20110;53.120;5.786;2023-09-19T05:53:35;13.00;99.90
33803;DHT22;20110;53.120;5.786;2023-09-19T05:56:01;13.10;99.90
33803;DHT22;20110;53.120;5.786;2023-09-19T05:58:27;13.10;99.90
33803;DHT22;20110;53.120;5.786;2023-09-19T06:00:52;13.10;99.90
33803;DHT22;20110;53.120;5.786;2023-09-19T06:03:18;13.10;99.90
33803;DHT22;20110;53.120;5.786;2023-09-19T06:05:45;13.10;99.90
33803;DHT22;20110;53.120;5.786;2023-09-19T06:08:14;13.10;99.90
33803;DHT22;20110;53.120;5.786;2023-09-19T06:10:40;13.10;99.90
33803;DHT22;20110;53.120;5.786;2023-09-19T06:13:06;13.10;99.90
33803;DHT22;20110;53.120;5.786;2023-09-19T06:15:36;13.10;99.90
33803;DHT22;20110;53.120;5.786;2023-09-19T06:18:02;13.00;99.90
33803;DHT22;20110;53.120;5.786;2023-09-19T06:20:30;13.10;99.90
33803;DHT22;20110;53.120;5.786;2023-09-19T06:22:57;13.10;99.90
33803;DHT22;20110;53.120;5.786;2023-09-19T06:25:24;13.10;99.90
33803;DHT22;20110;53.120;5.786;2023-09-19T06:27:58;13.20;99.90
33803;DHT22;20110;53.120;5.786;2023-09-19T06:30:24;13.30;99.90
33803;DHT22;20110;53.120;5.786;2023-09-19T06:32:57;13.30;99.90
33803;DHT22;20110;53.120;5.786;2023-09-19T06:35:23;13.30;99.90
33803;DHT22;20110;53.120;5.786;2023-09-19T06:37:51;13.30;99.90
33803;DHT22;20110;53.120;5.786;2023-09-19T06:40:18;13.30;99.90
33803;DHT22;20110;53.120;5.786;2023-09-19T06:42:49;13.30;99.90
33803;DHT22;20110;53.120;5.786;2023-09-19T06:45:18;13.40;99.90
33803;DHT22;20110;53.120;5.786;2023-09-19T06:47:48;13.50;99.90
33803;DHT22;20110;53.120;5.786;2023-09-19T06:50:21;13.60;99.90
33803;DHT22;20110;53.120;5.786;2023-09-19T06:52:50;13.70;99.90
33803;DHT22;20110;53.120;5.786;2023-09-19T06:55:18;13.80;99.90
33803;DHT22;20110;53.120;5.786;2023-09-19T06:57:47;13.80;99.90
33803;DHT22;20110;53.120;5.786;2023-09-19T07:00:14;13.90;99.90
33803;DHT22;20110;53.120;5.786;2023-09-19T07:03:07;13.90;99.90
33803;DHT22;20110;53.120;5.786;2023-09-19T07:05:37;13.90;99.90
33803;DHT22;20110;53.120;5.786;2023-09-19T07:08:08;14.00;99.90
33803;DHT22;20110;53.120;5.786;2023-09-19T07:10:38;14.00;99.90
33803;DHT22;20110;53.120;5.786;2023-09-19T07:13:10;14.00;99.90
33803;DHT22;20110;53.120;5.786;2023-09-19T07:15:38;14.00;99.90
33803;DHT22;20110;53.120;5.786;2023-09-19T07:18:07;14.00;99.90
33803;DHT22;20110;53.120;5.786;2023-09-19T07:20:36;14.00;99.90
33803;DHT22;20110;53.120;5.786;2023-09-19T07:23:04;14.00;99.90
33803;DHT22;20110;53.120;5.786;2023-09-19T07:25:30;14.00;99.90
33803;DHT22;20110;53.120;5.786;2023-09-19T07:27:57;14.00;99.90
33803;DHT22;20110;53.120;5.786;2023-09-19T07:30:27;14.00;99.90
33803;DHT22;20110;53.120;5.786;2023-09-19T07:32:53;14.20;99.90
33803;DHT22;20110;53.120;5.786;2023-09-19T07:35:19;14.20;99.90
33803;DHT22;20110;53.120;5.786;2023-09-19T07:37:48;14.30;99.90
33803;DHT22;20110;53.120;5.786;2023-09-19T07:40:15;14.30;99.90
33803;DHT22;20110;53.120;5.786;2023-09-19T07:42:41;14.40;99.90
33803;DHT22;20110;53.120;5.786;2023-09-19T07:45:08;14.60;99.90
33803;DHT22;20110;53.120;5.786;2023-09-19T07:47:36;14.60;99.90
33803;DHT22;20110;53.120;5.786;2023-09-19T07:50:03;14.70;99.90
33803;DHT22;20110;53.120;5.786;2023-09-19T07:52:30;14.60;99.90
33803;DHT22;20110;53.120;5.786;2023-09-19T07:54:59;14.70;99.90
33803;DHT22;20110;53.120;5.786;2023-09-19T07:57:26;14.70;99.90
33803;DHT22;20110;53.120;5.786;2023-09-19T07:59:54;14.80;99.90
33803;DHT22;20110;53.120;5.786;2023-09-19T08:02:20;14.80;99.90
33803;DHT22;20110;53.120;5.786;2023-09-19T08:04:46;14.80;99.90
33803;DHT22;20110;53.120;5.786;2023-09-19T08:07:13;14.90;99.90
33803;DHT22;20110;53.120;5.786;2023-09-19T08:09:39;15.00;99.90
33803;DHT22;20110;53.120;5.786;2023-09-19T08:12:06;15.10;99.90
33803;DHT22;20110;53.120;5.786;2023-09-19T08:14:36;15.30;99.90
33803;DHT22;20110;53.120;5.786;2023-09-19T08:17:03;15.40;99.90
33803;DHT22;20110;53.120;5.786;2023-09-19T08:19:33;15.40;99.90
33803;DHT22;20110;53.120;5.786;2023-09-19T08:21:59;15.40;99.90
33803;DHT22;20110;53.120;5.786;2023-09-19T08:24:27;15.40;99.90
33803;DHT22;20110;53.120;5.786;2023-09-19T08:26:57;15.40;99.90
33803;DHT22;20110;53.120;5.786;2023-09-19T08:29:25;15.30;99.90
33803;DHT22;20110;53.120;5.786;2023-09-19T08:31:54;15.30;99.90
33803;DHT22;20110;53.120;5.786;2023-09-19T08:34:24;15.30;99.90
33803;DHT22;20110;53.120;5.786;2023-09-19T08:36:54;15.30;99.90
33803;DHT22;20110;53.120;5.786;2023-09-19T08:39:24;15.30;99.90
33803;DHT22;20110;53.120;5.786;2023-09-19T08:42:00;15.40;97.00
33803;DHT22;20110;53.120;5.786;2023-09-19T08:44:28;15.40;94.40
33803;DHT22;20110;53.120;5.786;2023-09-19T08:47:14;15.40;93.70
33803;DHT22;20110;53.120;5.786;2023-09-19T08:50:04;15.50;96.00
33803;DHT22;20110;53.120;5.786;2023-09-19T08:52:43;15.60;99.90
33803;DHT22;20110;53.120;5.786;2023-09-19T08:55:14;15.60;96.70
33803;DHT22;20110;53.120;5.786;2023-09-19T08:57:49;15.60;97.10
33803;DHT22;20110;53.120;5.786;2023-09-19T09:00:19;15.70;99.90
33803;DHT22;20110;53.120;5.786;2023-09-19T09:02:47;15.70;99.90
33803;DHT22;20110;53.120;5.786;2023-09-19T09:05:15;15.80;99.20
33803;DHT22;20110;53.120;5.786;2023-09-19T09:07:49;15.80;93.70
33803;DHT22;20110;53.120;5.786;2023-09-19T09:10:19;16.00;95.40
33803;DHT22;20110;53.120;5.786;2023-09-19T09:12:52;16.00;98.70
33803;DHT22;20110;53.120;5.786;2023-09-19T09:15:23;15.90;93.30
33803;DHT22;20110;53.120;5.786;2023-09-19T09:17:50;16.10;95.50
33803;DHT22;20110;53.120;5.786;2023-09-19T09:20:20;16.30;94.80
33803;DHT22;20110;53.120;5.786;2023-09-19T09:22:53;16.20;94.70
33803;DHT22;20110;53.120;5.786;2023-09-19T09:25:22;16.30;96.60
33803;DHT22;20110;53.120;5.786;2023-09-19T09:28:19;16.30;95.00
33803;DHT22;20110;53.120;5.786;2023-09-19T09:30:50;16.30;98.20
33803;DHT22;20110;53.120;5.786;2023-09-19T09:33:17;16.40;97.60
33803;DHT22;20110;53.120;5.786;2023-09-19T09:35:50;16.40;93.70
33803;DHT22;20110;53.120;5.786;2023-09-19T09:38:24;16.60;97.90
33803;DHT22;20110;53.120;5.786;2023-09-19T09:40:56;16.40;95.10
33803;DHT22;20110;53.120;5.786;2023-09-19T09:43:36;16.30;94.90
33803;DHT22;20110;53.120;5.786;2023-09-19T09:46:12;16.20;98.90
33803;DHT22;20110;53.120;5.786;2023-09-19T09:49:02;16.40;97.70
33803;DHT22;20110;53.120;5.786;2023-09-19T09:52:01;16.70;99.60
33803;DHT22;20110;53.120;5.786;2023-09-19T09:54:31;16.90;99.90
33803;DHT22;20110;53.120;5.786;2023-09-19T09:57:08;16.60;95.40
33803;DHT22;20110;53.120;5.786;2023-09-19T09:59:47;16.40;95.30
33803;DHT22;20110;53.120;5.786;2023-09-19T10:02:35;16.40;96.50
33803;DHT22;20110;53.120;5.786;2023-09-19T10:05:16;16.20;95.70
33803;DHT22;20110;53.120;5.786;2023-09-19T10:07:52;16.00;99.90
33803;DHT22;20110;53.120;5.786;2023-09-19T10:10:35;15.80;99.90
33803;DHT22;20110;53.120;5.786;2023-09-19T10:13:09;15.80;99.90
33803;DHT22;20110;53.120;5.786;2023-09-19T10:15:46;15.90;99.90
33803;DHT22;20110;53.120;5.786;2023-09-19T10:18:23;16.00;99.90
33803;DHT22;20110;53.120;5.786;2023-09-19T10:20:51;16.10;99.90
33803;DHT22;20110;53.120;5.786;2023-09-19T10:23:19;16.10;99.90
33803;DHT22;20110;53.120;5.786;2023-09-19T10:25:52;16.20;99.90
33803;DHT22;20110;53.120;5.786;2023-09-19T10:28:20;16.20;99.90
33803;DHT22;20110;53.120;5.786;2023-09-19T10:30:53;16.50;99.90
33803;DHT22;20110;53.120;5.786;2023-09-19T10:33:25;16.20;99.90
33803;DHT22;20110;53.120;5.786;2023-09-19T10:35:51;16.40;99.90
33803;DHT22;20110;53.120;5.786;2023-09-19T10:38:24;16.00;99.90
33803;DHT22;20110;53.120;5.786;2023-09-19T10:40:53;15.60;99.90
33803;DHT22;20110;53.120;5.786;2023-09-19T10:43:22;15.70;99.90
33803;DHT22;20110;53.120;5.786;2023-09-19T10:45:51;15.50;99.90
33803;DHT22;20110;53.120;5.786;2023-09-19T10:48:20;15.50;99.90
33803;DHT22;20110;53.120;5.786;2023-09-19T10:54:04;15.50;99.90
33803;DHT22;20110;53.120;5.786;2023-09-19T10:56:38;15.40;99.90
33803;DHT22;20110;53.120;5.786;2023-09-19T10:59:14;15.70;99.90
33803;DHT22;20110;53.120;5.786;2023-09-19T11:01:56;16.20;99.90
33803;DHT22;20110;53.120;5.786;2023-09-19T11:04:37;16.10;99.90
33803;DHT22;20110;53.120;5.786;2023-09-19T11:07:05;16.20;99.90
33803;DHT22;20110;53.120;5.786;2023-09-19T11:14:57;15.70;99.90
33803;DHT22;20110;53.120;5.786;2023-09-19T11:17:33;15.70;99.90
33803;DHT22;20110;53.120;5.786;2023-09-19T11:30:34;15.80;99.90
33803;DHT22;20110;53.120;5.786;2023-09-19T11:33:20;15.80;99.90
33803;DHT22;20110;53.120;5.786;2023-09-19T11:36:15;15.70;99.90
33803;DHT22;20110;53.120;5.786;2023-09-19T11:49:26;14.40;99.90
33803;DHT22;20110;53.120;5.786;2023-09-19T11:51:58;14.20;99.90
33803;DHT22;20110;53.120;5.786;2023-09-19T11:54:31;14.10;99.90
33803;DHT22;20110;53.120;5.786;2023-09-19T11:56:59;14.00;99.90
33803;DHT22;20110;53.120;5.786;2023-09-19T11:59:30;13.80;99.90
33803;DHT22;20110;53.120;5.786;2023-09-19T12:02:06;13.90;99.90
33803;DHT22;20110;53.120;5.786;2023-09-19T12:07:13;14.20;99.90
33803;DHT22;20110;53.120;5.786;2023-09-19T12:10:04;14.50;99.90
33803;DHT22;20110;53.120;5.786;2023-09-19T12:12:36;14.70;99.90
33803;DHT22;20110;53.120;5.786;2023-09-19T12:15:03;14.80;99.90
33803;DHT22;20110;53.120;5.786;2023-09-19T12:17:39;14.80;99.90
33803;DHT22;20110;53.120;5.786;2023-09-19T12:20:09;14.90;99.90
33803;DHT22;20110;53.120;5.786;2023-09-19T12:22:41;15.10;99.90
33803;DHT22;20110;53.120;5.786;2023-09-19T12:25:10;15.10;99.90
33803;DHT22;20110;53.120;5.786;2023-09-19T12:27:44;15.30;99.90
33803;DHT22;20110;53.120;5.786;2023-09-19T12:30:28;15.30;99.90
33803;DHT22;20110;53.120;5.786;2023-09-19T12:32:58;15.30;99.90
33803;DHT22;20110;53.120;5.786;2023-09-19T12:35:31;15.30;99.90
33803;DHT22;20110;53.120;5.786;2023-09-19T12:38:01;15.30;99.90
33803;DHT22;20110;53.120;5.786;2023-09-19T12:40:29;15.20;99.90
33803;DHT22;20110;53.120;5.786;2023-09-19T12:42:59;15.30;99.90
33803;DHT22;20110;53.120;5.786;2023-09-19T12:45:28;15.20;99.90
33803;DHT22;20110;53.120;5.786;2023-09-19T12:51:02;14.80;99.90
33803;DHT22;20110;53.120;5.786;2023-09-19T12:53:36;14.50;99.90
33803;DHT22;20110;53.120;5.786;2023-09-19T12:56:08;14.60;99.90
33803;DHT22;20110;53.120;5.786;2023-09-19T12:58:51;14.80;99.90
33803;DHT22;20110;53.120;5.786;2023-09-19T13:01:20;15.10;99.90
33803;DHT22;20110;53.120;5.786;2023-09-19T13:03:46;15.10;99.90
33803;DHT22;20110;53.120;5.786;2023-09-19T13:06:51;15.10;99.90
33803;DHT22;20110;53.120;5.786;2023-09-19T13:09:19;15.10;99.90
33803;DHT22;20110;53.120;5.786;2023-09-19T13:11:46;15.10;99.90
33803;DHT22;20110;53.120;5.786;2023-09-19T13:14:25;15.20;99.90
33803;DHT22;20110;53.120;5.786;2023-09-19T13:17:07;15.30;99.90
33803;DHT22;20110;53.120;5.786;2023-09-19T13:19:46;15.40;99.90
33803;DHT22;20110;53.120;5.786;2023-09-19T13:22:42;15.20;99.90
33803;DHT22;20110;53.120;5.786;2023-09-19T13:25:21;15.40;99.90
33803;DHT22;20110;53.120;5.786;2023-09-19T13:27:52;15.50;99.90
33803;DHT22;20110;53.120;5.786;2023-09-19T13:30:23;15.70;99.90
33803;DHT22;20110;53.120;5.786;2023-09-19T13:32:51;15.70;99.90
33803;DHT22;20110;53.120;5.786;2023-09-19T13:35:19;15.80;99.90
33803;DHT22;20110;53.120;5.786;2023-09-19T13:37:47;15.90;99.90
33803;DHT22;20110;53.120;5.786;2023-09-19T13:40:15;16.00;99.90
33803;DHT22;20110;53.120;5.786;2023-09-19T13:42:42;16.00;99.90
33803;DHT22;20110;53.120;5.786;2023-09-19T13:45:09;16.00;99.90
33803;DHT22;20110;53.120;5.786;2023-09-19T13:47:37;16.00;99.90
33803;DHT22;20110;53.120;5.786;2023-09-19T13:50:05;16.00;99.90
33803;DHT22;20110;53.120;5.786;2023-09-19T13:52:32;16.00;99.90
33803;DHT22;20110;53.120;5.786;2023-09-19T13:54:58;16.00;99.90
33803;DHT22;20110;53.120;5.786;2023-09-19T13:57:25;15.90;99.90
33803;DHT22;20110;53.120;5.786;2023-09-19T13:59:54;15.70;99.90
33803;DHT22;20110;53.120;5.786;2023-09-19T14:02:21;15.60;99.90
33803;DHT22;20110;53.120;5.786;2023-09-19T14:04:53;15.40;99.90
33803;DHT22;20110;53.120;5.786;2023-09-19T14:07:20;15.20;99.90
33803;DHT22;20110;53.120;5.786;2023-09-19T14:09:46;15.10;99.90
33803;DHT22;20110;53.120;5.786;2023-09-19T14:12:14;15.10;99.90
33803;DHT22;20110;53.120;5.786;2023-09-19T14:14:41;15.20;99.90
33803;DHT22;20110;53.120;5.786;2023-09-19T14:17:07;15.20;99.90
33803;DHT22;20110;53.120;5.786;2023-09-19T14:19:36;15.30;99.90
33803;DHT22;20110;53.120;5.786;2023-09-19T14:22:02;15.40;99.90
33803;DHT22;20110;53.120;5.786;2023-09-19T14:24:33;15.50;99.90
33803;DHT22;20110;53.120;5.786;2023-09-19T14:26:59;15.60;99.90
33803;DHT22;20110;53.120;5.786;2023-09-19T14:29:25;15.80;99.90
33803;DHT22;20110;53.120;5.786;2023-09-19T14:31:51;15.90;99.90
33803;DHT22;20110;53.120;5.786;2023-09-19T14:34:18;15.90;99.90
33803;DHT22;20110;53.120;5.786;2023-09-19T14:36:46;15.90;99.90
33803;DHT22;20110;53.120;5.786;2023-09-19T14:39:12;15.70;99.90
33803;DHT22;20110;53.120;5.786;2023-09-19T14:41:38;15.60;99.90
33803;DHT22;20110;53.120;5.786;2023-09-19T14:44:04;15.70;99.90
33803;DHT22;20110;53.120;5.786;2023-09-19T14:46:30;15.70;99.90
33803;DHT22;20110;53.120;5.786;2023-09-19T14:48:56;15.80;99.90
33803;DHT22;20110;53.120;5.786;2023-09-19T14:51:29;15.80;99.90
33803;DHT22;20110;53.120;5.786;2023-09-19T14:53:55;15.80;99.90
33803;DHT22;20110;53.120;5.786;2023-09-19T14:56:22;15.90;99.90
33803;DHT22;20110;53.120;5.786;2023-09-19T14:58:51;16.00;99.90
33803;DHT22;20110;53.120;5.786;2023-09-19T15:01:17;16.10;99.90
33803;DHT22;20110;53.120;5.786;2023-09-19T15:03:43;16.10;99.90
33803;DHT22;20110;53.120;5.786;2023-09-19T15:06:11;16.10;99.90
33803;DHT22;20110;53.120;5.786;2023-09-19T15:08:40;16.10;99.90
33803;DHT22;20110;53.120;5.786;2023-09-19T15:11:11;16.00;99.90
33803;DHT22;20110;53.120;5.786;2023-09-19T15:13:38;15.90;99.90
33803;DHT22;20110;53.120;5.786;2023-09-19T15:16:05;15.90;99.90
33803;DHT22;20110;53.120;5.786;2023-09-19T15:18:36;15.90;99.90
33803;DHT22;20110;53.120;5.786;2023-09-19T15:21:04;16.00;99.90
33803;DHT22;20110;53.120;5.786;2023-09-19T15:23:35;16.00;99.90
33803;DHT22;20110;53.120;5.786;2023-09-19T15:26:02;16.00;99.90
33803;DHT22;20110;53.120;5.786;2023-09-19T15:28:33;16.00;99.90
33803;DHT22;20110;53.120;5.786;2023-09-19T15:31:04;15.90;99.90
33803;DHT22;20110;53.120;5.786;2023-09-19T15:33:32;15.80;99.90
33803;DHT22;20110;53.120;5.786;2023-09-19T15:36:12;15.60;99.90
33803;DHT22;20110;53.120;5.786;2023-09-19T15:39:08;15.50;99.90
33803;DHT22;20110;53.120;5.786;2023-09-19T15:41:38;15.20;99.90
33803;DHT22;20110;53.120;5.786;2023-09-19T15:44:13;15.10;99.90
33803;DHT22;20110;53.120;5.786;2023-09-19T15:46:41;15.00;99.90
33803;DHT22;20110;53.120;5.786;2023-09-19T15:49:07;14.90;99.90
33803;DHT22;20110;53.120;5.786;2023-09-19T15:51:34;14.90;99.90
33803;DHT22;20110;53.120;5.786;2023-09-19T15:54:10;14.80;99.90
33803;DHT22;20110;53.120;5.786;2023-09-19T15:56:44;14.80;99.90
33803;DHT22;20110;53.120;5.786;2023-09-19T15:59:12;14.80;99.90
33803;DHT22;20110;53.120;5.786;2023-09-19T16:01:39;14.70;99.90
33803;DHT22;20110;53.120;5.786;2023-09-19T16:04:08;14.60;99.90
33803;DHT22;20110;53.120;5.786;2023-09-19T16:06:36;14.60;99.90
33803;DHT22;20110;53.120;5.786;2023-09-19T16:09:04;14.60;99.90
33803;DHT22;20110;53.120;5.786;2023-09-19T16:11:35;14.50;99.90
33803;DHT22;20110;53.120;5.786;2023-09-19T16:14:01;14.50;99.90
33803;DHT22;20110;53.120;5.786;2023-09-19T16:16:28;14.50;99.90
33803;DHT22;20110;53.120;5.786;2023-09-19T16:19:02;14.50;99.90
33803;DHT22;20110;53.120;5.786;2023-09-19T16:21:31;14.50;99.90
33803;DHT22;20110;53.120;5.786;2023-09-19T16:24:00;14.50;99.90
33803;DHT22;20110;53.120;5.786;2023-09-19T16:26:27;14.50;99.90
33803;DHT22;20110;53.120;5.786;2023-09-19T16:28:55;14.50;99.90
33803;DHT22;20110;53.120;5.786;2023-09-19T16:31:26;14.60;99.90
33803;DHT22;20110;53.120;5.786;2023-09-19T16:33:54;14.60;99.90
33803;DHT22;20110;53.120;5.786;2023-09-19T16:36:21;14.60;99.90
33803;DHT22;20110;53.120;5.786;2023-09-19T16:38:49;14.60;99.90
33803;DHT22;20110;53.120;5.786;2023-09-19T16:41:18;14.60;99.90